sensor_id;sensor_type;location;lat;lon;timestamp;temperature;humidity
152;DHT22;68;48.792;9.164;2022-07-29T00:00:08;21.10;91.40
152;DHT22;68;48.792;9.164;2022-07-29T00:02:36;21.10;92.00
152;DHT22;68;48.792;9.164;2022-07-29T00:05:04;21.10;91.90
152;DHT22;68;48.792;9.164;2022-07-29T00:07:31;21.20;91.90
152;DHT22;68;48.792;9.164;2022-07-29T00:09:58;21.20;91.60
152;DHT22;68;48.792;9.164;2022-07-29T00:12:26;21.20;91.70
152;DHT22;68;48.792;9.164;2022-07-29T00:14:53;21.40;91.40
152;DHT22;68;48.792;9.164;2022-07-29T00:17:20;21.30;91.60
152;DHT22;68;48.792;9.164;2022-07-29T00:19:47;21.30;91.70
152;DHT22;68;48.792;9.164;2022-07-29T00:22:15;21.30;91.80
152;DHT22;68;48.792;9.164;2022-07-29T00:24:41;21.40;91.40
152;DHT22;68;48.792;9.164;2022-07-29T00:27:08;21.50;91.20
152;DHT22;68;48.792;9.164;2022-07-29T00:29:36;21.50;91.30
152;DHT22;68;48.792;9.164;2022-07-29T00:32:03;21.60;90.90
152;DHT22;68;48.792;9.164;2022-07-29T00:34:30;21.80;90.50
152;DHT22;68;48.792;9.164;2022-07-29T00:37:15;21.90;90.20
152;DHT22;68;48.792;9.164;2022-07-29T00:39:42;21.80;90.40
152;DHT22;68;48.792;9.164;2022-07-29T00:42:09;21.70;90.50
152;DHT22;68;48.792;9.164;2022-07-29T00:44:38;21.60;91.00
152;DHT22;68;48.792;9.164;2022-07-29T00:47:05;21.40;91.40
152;DHT22;68;48.792;9.164;2022-07-29T00:49:32;21.40;91.80
152;DHT22;68;48.792;9.164;2022-07-29T00:52:01;21.40;92.00
152;DHT22;68;48.792;9.164;2022-07-29T00:54:28;21.30;91.80
152;DHT22;68;48.792;9.164;2022-07-29T00:56:56;21.20;92.00
152;DHT22;68;48.792;9.164;2022-07-29T00:59:24;21.10;92.20
152;DHT22;68;48.792;9.164;2022-07-29T01:01:52;21.10;92.20
152;DHT22;68;48.792;9.164;2022-07-29T01:04:20;21.10;92.20
152;DHT22;68;48.792;9.164;2022-07-29T01:06:47;21.10;92.20
152;DHT22;68;48.792;9.164;2022-07-29T01:09:14;21.10;92.20
152;DHT22;68;48.792;9.164;2022-07-29T01:11:42;21.20;92.20
152;DHT22;68;48.792;9.164;2022-07-29T01:14:10;21.30;92.20
152;DHT22;68;48.792;9.164;2022-07-29T01:16:46;21.30;92.00
152;DHT22;68;48.792;9.164;2022-07-29T01:19:30;21.30;92.10
152;DHT22;68;48.792;9.164;2022-07-29T01:22:07;21.40;91.80
152;DHT22;68;48.792;9.164;2022-07-29T01:24:48;21.30;92.00
152;DHT22;68;48.792;9.164;2022-07-29T01:27:32;21.20;91.90
152;DHT22;68;48.792;9.164;2022-07-29T01:30:04;21.20;92.10
152;DHT22;68;48.792;9.164;2022-07-29T01:32:34;21.20;91.90
152;DHT22;68;48.792;9.164;2022-07-29T01:35:04;21.20;92.00
152;DHT22;68;48.792;9.164;2022-07-29T01:37:36;21.10;92.30
152;DHT22;68;48.792;9.164;2022-07-29T01:40:05;21.00;92.30
152;DHT22;68;48.792;9.164;2022-07-29T01:42:38;21.00;92.10
152;DHT22;68;48.792;9.164;2022-07-29T01:45:12;21.00;92.20
152;DHT22;68;48.792;9.164;2022-07-29T01:47:43;20.90;92.20
152;DHT22;68;48.792;9.164;2022-07-29T01:50:16;20.80;92.40
152;DHT22;68;48.792;9.164;2022-07-29T01:52:46;20.70;92.50
152;DHT22;68;48.792;9.164;2022-07-29T01:55:16;20.80;92.40
152;DHT22;68;48.792;9.164;2022-07-29T01:57:46;20.80;92.30
152;DHT22;68;48.792;9.164;2022-07-29T02:00:16;20.80;92.40
152;DHT22;68;48.792;9.164;2022-07-29T02:02:45;20.80;92.40
152;DHT22;68;48.792;9.164;2022-07-29T02:05:15;20.80;92.40
152;DHT22;68;48.792;9.164;2022-07-29T02:07:43;20.80;92.40
152;DHT22;68;48.792;9.164;2022-07-29T02:10:11;20.80;92.30
152;DHT22;68;48.792;9.164;2022-07-29T02:12:40;20.80;92.30
152;DHT22;68;48.792;9.164;2022-07-29T02:15:09;20.90;92.20
152;DHT22;68;48.792;9.164;2022-07-29T02:17:41;20.80;92.30
152;DHT22;68;48.792;9.164;2022-07-29T02:20:10;20.80;92.40
152;DHT22;68;48.792;9.164;2022-07-29T02:22:38;20.60;92.30
152;DHT22;68;48.792;9.164;2022-07-29T02:25:07;20.50;92.50
152;DHT22;68;48.792;9.164;2022-07-29T02:27:35;20.40;92.60
152;DHT22;68;48.792;9.164;2022-07-29T02:30:04;20.50;92.50
152;DHT22;68;48.792;9.164;2022-07-29T02:32:32;20.60;92.40
152;DHT22;68;48.792;9.164;2022-07-29T02:35:02;20.50;92.50
152;DHT22;68;48.792;9.164;2022-07-29T02:37:30;20.60;92.50
152;DHT22;68;48.792;9.164;2022-07-29T02:39:59;20.50;92.60
152;DHT22;68;48.792;9.164;2022-07-29T02:42:26;20.40;92.40
152;DHT22;68;48.792;9.164;2022-07-29T02:44:54;20.40;92.60
152;DHT22;68;48.792;9.164;2022-07-29T02:47:23;20.40;92.60
152;DHT22;68;48.792;9.164;2022-07-29T02:49:55;20.40;92.60
152;DHT22;68;48.792;9.164;2022-07-29T02:52:27;20.20;92.40
152;DHT22;68;48.792;9.164;2022-07-29T02:55:00;20.30;92.60
152;DHT22;68;48.792;9.164;2022-07-29T02:57:33;20.40;92.70
152;DHT22;68;48.792;9.164;2022-07-29T03:00:04;20.40;92.60
152;DHT22;68;48.792;9.164;2022-07-29T03:02:35;20.10;92.60
152;DHT22;68;48.792;9.164;2022-07-29T03:05:04;20.00;92.30
152;DHT22;68;48.792;9.164;2022-07-29T03:07:33;19.90;92.50
152;DHT22;68;48.792;9.164;2022-07-29T03:10:02;19.90;92.10
152;DHT22;68;48.792;9.164;2022-07-29T03:12:30;19.90;92.20
152;DHT22;68;48.792;9.164;2022-07-29T03:14:58;20.00;92.40
152;DHT22;68;48.792;9.164;2022-07-29T03:17:25;20.20;92.70
152;DHT22;68;48.792;9.164;2022-07-29T03:19:53;20.30;92.70
152;DHT22;68;48.792;9.164;2022-07-29T03:22:20;20.40;92.40
152;DHT22;68;48.792;9.164;2022-07-29T03:24:49;20.50;92.30
152;DHT22;68;48.792;9.164;2022-07-29T03:27:15;20.30;92.20
152;DHT22;68;48.792;9.164;2022-07-29T03:29:42;20.00;92.60
152;DHT22;68;48.792;9.164;2022-07-29T03:32:10;19.80;92.50
152;DHT22;68;48.792;9.164;2022-07-29T03:34:37;19.70;92.40
152;DHT22;68;48.792;9.164;2022-07-29T03:37:05;19.70;91.90
152;DHT22;68;48.792;9.164;2022-07-29T03:39:36;20.00;92.30
152;DHT22;68;48.792;9.164;2022-07-29T03:42:07;20.20;92.60
152;DHT22;68;48.792;9.164;2022-07-29T03:44:35;20.10;92.70
152;DHT22;68;48.792;9.164;2022-07-29T03:47:04;19.80;92.60
152;DHT22;68;48.792;9.164;2022-07-29T03:49:34;19.70;92.00
152;DHT22;68;48.792;9.164;2022-07-29T03:52:02;19.90;92.00
152;DHT22;68;48.792;9.164;2022-07-29T03:54:30;19.90;92.30
152;DHT22;68;48.792;9.164;2022-07-29T03:56:59;19.80;92.10
152;DHT22;68;48.792;9.164;2022-07-29T03:59:30;19.60;91.70
152;DHT22;68;48.792;9.164;2022-07-29T04:02:00;19.50;91.20
152;DHT22;68;48.792;9.164;2022-07-29T04:04:28;19.60;90.50
152;DHT22;68;48.792;9.164;2022-07-29T04:06:55;19.60;90.90
152;DHT22;68;48.792;9.164;2022-07-29T04:09:22;19.60;90.80
152;DHT22;68;48.792;9.164;2022-07-29T04:11:49;19.50;90.90
152;DHT22;68;48.792;9.164;2022-07-29T04:14:16;19.40;90.80
152;DHT22;68;48.792;9.164;2022-07-29T04:16:44;19.40;89.30
152;DHT22;68;48.792;9.164;2022-07-29T04:19:11;19.50;89.80
152;DHT22;68;48.792;9.164;2022-07-29T04:21:38;19.70;91.00
152;DHT22;68;48.792;9.164;2022-07-29T04:24:06;19.90;92.00
152;DHT22;68;48.792;9.164;2022-07-29T04:26:33;20.00;92.50
152;DHT22;68;48.792;9.164;2022-07-29T04:29:00;20.20;92.70
152;DHT22;68;48.792;9.164;2022-07-29T04:31:27;20.50;92.50
152;DHT22;68;48.792;9.164;2022-07-29T04:33:55;20.60;92.40
152;DHT22;68;48.792;9.164;2022-07-29T04:36:22;20.40;92.60
152;DHT22;68;48.792;9.164;2022-07-29T04:38:48;20.40;92.60
152;DHT22;68;48.792;9.164;2022-07-29T04:41:15;20.30;92.70
152;DHT22;68;48.792;9.164;2022-07-29T04:43:42;20.60;92.00
152;DHT22;68;48.792;9.164;2022-07-29T04:46:09;20.60;92.10
152;DHT22;68;48.792;9.164;2022-07-29T04:48:35;20.40;92.20
152;DHT22;68;48.792;9.164;2022-07-29T04:51:04;20.00;92.60
152;DHT22;68;48.792;9.164;2022-07-29T04:53:30;19.60;92.60
152;DHT22;68;48.792;9.164;2022-07-29T04:55:57;19.40;92.30
152;DHT22;68;48.792;9.164;2022-07-29T04:58:24;19.60;92.20
152;DHT22;68;48.792;9.164;2022-07-29T05:00:51;19.70;92.30
152;DHT22;68;48.792;9.164;2022-07-29T05:03:18;20.10;92.80
152;DHT22;68;48.792;9.164;2022-07-29T05:05:45;20.20;92.70
152;DHT22;68;48.792;9.164;2022-07-29T05:08:13;20.30;92.40
152;DHT22;68;48.792;9.164;2022-07-29T05:10:40;20.20;92.70
152;DHT22;68;48.792;9.164;2022-07-29T05:13:07;20.10;92.70
152;DHT22;68;48.792;9.164;2022-07-29T05:15:35;20.10;92.80
152;DHT22;68;48.792;9.164;2022-07-29T05:18:02;20.10;92.50
152;DHT22;68;48.792;9.164;2022-07-29T05:20:29;20.00;92.80
152;DHT22;68;48.792;9.164;2022-07-29T05:22:56;19.80;92.80
152;DHT22;68;48.792;9.164;2022-07-29T05:25:26;19.70;92.70
152;DHT22;68;48.792;9.164;2022-07-29T05:27:53;19.70;92.80
152;DHT22;68;48.792;9.164;2022-07-29T05:30:20;19.70;92.80
152;DHT22;68;48.792;9.164;2022-07-29T05:32:47;20.00;92.90
152;DHT22;68;48.792;9.164;2022-07-29T05:35:15;20.30;92.40
152;DHT22;68;48.792;9.164;2022-07-29T05:37:42;20.40;91.70
152;DHT22;68;48.792;9.164;2022-07-29T05:40:09;20.50;91.20
152;DHT22;68;48.792;9.164;2022-07-29T05:42:38;20.70;91.00
152;DHT22;68;48.792;9.164;2022-07-29T05:45:06;20.80;90.30
152;DHT22;68;48.792;9.164;2022-07-29T05:47:33;20.90;89.90
152;DHT22;68;48.792;9.164;2022-07-29T05:50:00;21.10;89.50
152;DHT22;68;48.792;9.164;2022-07-29T05:52:27;21.30;88.80
152;DHT22;68;48.792;9.164;2022-07-29T05:54:53;21.30;88.10
152;DHT22;68;48.792;9.164;2022-07-29T05:57:22;21.30;88.20
152;DHT22;68;48.792;9.164;2022-07-29T05:59:51;21.40;88.40
152;DHT22;68;48.792;9.164;2022-07-29T06:02:18;21.30;88.80
152;DHT22;68;48.792;9.164;2022-07-29T06:04:45;21.40;88.80
152;DHT22;68;48.792;9.164;2022-07-29T06:07:12;21.40;89.10
152;DHT22;68;48.792;9.164;2022-07-29T06:09:39;21.50;88.70
152;DHT22;68;48.792;9.164;2022-07-29T06:12:06;21.80;87.60
152;DHT22;68;48.792;9.164;2022-07-29T06:14:32;21.80;88.10
152;DHT22;68;48.792;9.164;2022-07-29T06:17:01;21.90;87.40
152;DHT22;68;48.792;9.164;2022-07-29T06:19:28;22.00;87.10
152;DHT22;68;48.792;9.164;2022-07-29T06:21:55;22.20;87.00
152;DHT22;68;48.792;9.164;2022-07-29T06:24:22;22.30;85.40
152;DHT22;68;48.792;9.164;2022-07-29T06:26:49;22.40;85.20
152;DHT22;68;48.792;9.164;2022-07-29T06:29:15;22.30;84.50
152;DHT22;68;48.792;9.164;2022-07-29T06:31:42;22.40;85.00
152;DHT22;68;48.792;9.164;2022-07-29T06:34:10;22.30;86.10
152;DHT22;68;48.792;9.164;2022-07-29T06:36:37;22.50;86.30
152;DHT22;68;48.792;9.164;2022-07-29T06:39:05;22.70;84.30
152;DHT22;68;48.792;9.164;2022-07-29T06:41:32;22.60;84.90
152;DHT22;68;48.792;9.164;2022-07-29T06:43:59;22.70;84.30
152;DHT22;68;48.792;9.164;2022-07-29T06:46:26;22.80;83.60
152;DHT22;68;48.792;9.164;2022-07-29T06:48:54;22.90;83.60
152;DHT22;68;48.792;9.164;2022-07-29T06:51:22;22.90;84.00
152;DHT22;68;48.792;9.164;2022-07-29T06:53:49;23.00;84.00
152;DHT22;68;48.792;9.164;2022-07-29T06:56:16;23.00;84.30
152;DHT22;68;48.792;9.164;2022-07-29T06:58:43;23.10;83.30
152;DHT22;68;48.792;9.164;2022-07-29T07:01:10;23.20;82.40
152;DHT22;68;48.792;9.164;2022-07-29T07:03:37;23.20;81.50
152;DHT22;68;48.792;9.164;2022-07-29T07:06:04;23.20;82.20
152;DHT22;68;48.792;9.164;2022-07-29T07:08:32;22.90;81.80
152;DHT22;68;48.792;9.164;2022-07-29T07:10:59;23.00;82.90
152;DHT22;68;48.792;9.164;2022-07-29T07:13:25;22.80;82.40
152;DHT22;68;48.792;9.164;2022-07-29T07:15:53;22.70;83.30
152;DHT22;68;48.792;9.164;2022-07-29T07:18:20;22.80;84.00
152;DHT22;68;48.792;9.164;2022-07-29T07:20:47;22.90;83.70
152;DHT22;68;48.792;9.164;2022-07-29T07:23:14;23.10;82.90
152;DHT22;68;48.792;9.164;2022-07-29T07:25:42;23.00;81.90
152;DHT22;68;48.792;9.164;2022-07-29T07:28:09;23.10;81.90
152;DHT22;68;48.792;9.164;2022-07-29T07:30:36;23.20;80.70
152;DHT22;68;48.792;9.164;2022-07-29T07:33:03;23.00;79.40
152;DHT22;68;48.792;9.164;2022-07-29T07:35:30;22.90;80.20
152;DHT22;68;48.792;9.164;2022-07-29T07:37:57;23.00;80.20
152;DHT22;68;48.792;9.164;2022-07-29T07:40:25;23.00;80.20
152;DHT22;68;48.792;9.164;2022-07-29T07:42:53;23.20;80.80
152;DHT22;68;48.792;9.164;2022-07-29T07:45:20;23.30;78.80
152;DHT22;68;48.792;9.164;2022-07-29T07:47:46;23.30;79.20
152;DHT22;68;48.792;9.164;2022-07-29T07:50:13;23.50;79.00
152;DHT22;68;48.792;9.164;2022-07-29T07:52:48;23.50;78.60
152;DHT22;68;48.792;9.164;2022-07-29T07:55:16;23.50;79.70
152;DHT22;68;48.792;9.164;2022-07-29T07:57:43;23.50;78.30
152;DHT22;68;48.792;9.164;2022-07-29T08:00:12;23.90;77.80
152;DHT22;68;48.792;9.164;2022-07-29T08:02:40;24.30;76.90
152;DHT22;68;48.792;9.164;2022-07-29T08:05:08;23.90;75.80
152;DHT22;68;48.792;9.164;2022-07-29T08:07:35;23.90;76.60
152;DHT22;68;48.792;9.164;2022-07-29T08:10:03;24.00;76.70
152;DHT22;68;48.792;9.164;2022-07-29T08:12:30;24.30;76.30
152;DHT22;68;48.792;9.164;2022-07-29T08:14:57;24.40;74.80
152;DHT22;68;48.792;9.164;2022-07-29T08:17:25;24.30;76.60
152;DHT22;68;48.792;9.164;2022-07-29T08:19:52;24.00;75.10
152;DHT22;68;48.792;9.164;2022-07-29T08:22:19;23.80;76.10
152;DHT22;68;48.792;9.164;2022-07-29T08:24:46;24.10;75.70
152;DHT22;68;48.792;9.164;2022-07-29T08:27:19;24.40;75.90
152;DHT22;68;48.792;9.164;2022-07-29T08:29:47;24.60;75.00
152;DHT22;68;48.792;9.164;2022-07-29T08:32:14;24.70;73.60
152;DHT22;68;48.792;9.164;2022-07-29T08:34:42;24.70;73.50
152;DHT22;68;48.792;9.164;2022-07-29T08:37:11;24.90;71.40
152;DHT22;68;48.792;9.164;2022-07-29T08:39:38;24.90;69.50
152;DHT22;68;48.792;9.164;2022-07-29T08:42:05;24.90;69.70
152;DHT22;68;48.792;9.164;2022-07-29T08:44:33;25.00;69.40
152;DHT22;68;48.792;9.164;2022-07-29T08:47:01;25.00;69.30
152;DHT22;68;48.792;9.164;2022-07-29T08:49:28;24.80;69.30
152;DHT22;68;48.792;9.164;2022-07-29T08:51:57;24.90;70.30
152;DHT22;68;48.792;9.164;2022-07-29T08:54:25;25.00;69.50
152;DHT22;68;48.792;9.164;2022-07-29T08:56:52;25.20;69.90
152;DHT22;68;48.792;9.164;2022-07-29T08:59:20;25.30;68.70
152;DHT22;68;48.792;9.164;2022-07-29T09:01:48;25.20;68.20
152;DHT22;68;48.792;9.164;2022-07-29T09:04:18;25.10;68.80
152;DHT22;68;48.792;9.164;2022-07-29T09:06:48;25.20;68.90
152;DHT22;68;48.792;9.164;2022-07-29T09:09:17;25.30;68.90
152;DHT22;68;48.792;9.164;2022-07-29T09:11:44;25.50;68.70
152;DHT22;68;48.792;9.164;2022-07-29T09:14:12;25.60;67.60
152;DHT22;68;48.792;9.164;2022-07-29T09:16:46;25.70;67.60
152;DHT22;68;48.792;9.164;2022-07-29T09:19:21;25.70;67.90
152;DHT22;68;48.792;9.164;2022-07-29T09:21:49;25.90;67.30
152;DHT22;68;48.792;9.164;2022-07-29T09:24:29;25.90;66.90
152;DHT22;68;48.792;9.164;2022-07-29T09:27:02;25.80;66.00
152;DHT22;68;48.792;9.164;2022-07-29T09:29:29;25.70;66.90
152;DHT22;68;48.792;9.164;2022-07-29T09:31:57;25.70;67.60
152;DHT22;68;48.792;9.164;2022-07-29T09:34:25;25.90;68.20
152;DHT22;68;48.792;9.164;2022-07-29T09:36:53;26.10;66.90
152;DHT22;68;48.792;9.164;2022-07-29T09:39:29;26.40;68.00
152;DHT22;68;48.792;9.164;2022-07-29T09:41:57;26.60;66.10
152;DHT22;68;48.792;9.164;2022-07-29T09:44:25;26.80;66.40
152;DHT22;68;48.792;9.164;2022-07-29T09:46:54;26.70;64.10
152;DHT22;68;48.792;9.164;2022-07-29T09:49:21;26.70;64.80
152;DHT22;68;48.792;9.164;2022-07-29T09:51:59;26.60;65.70
152;DHT22;68;48.792;9.164;2022-07-29T09:54:28;26.90;64.80
152;DHT22;68;48.792;9.164;2022-07-29T09:57:02;26.80;64.90
152;DHT22;68;48.792;9.164;2022-07-29T09:59:29;26.30;64.40
152;DHT22;68;48.792;9.164;2022-07-29T10:01:56;26.30;65.10
152;DHT22;68;48.792;9.164;2022-07-29T10:04:23;26.30;66.10
152;DHT22;68;48.792;9.164;2022-07-29T10:06:57;26.30;66.30
152;DHT22;68;48.792;9.164;2022-07-29T10:09:25;26.30;66.30
152;DHT22;68;48.792;9.164;2022-07-29T10:12:11;26.50;65.30
152;DHT22;68;48.792;9.164;2022-07-29T10:14:39;26.30;66.30
152;DHT22;68;48.792;9.164;2022-07-29T10:17:09;26.10;66.40
152;DHT22;68;48.792;9.164;2022-07-29T10:19:37;26.10;65.40
152;DHT22;68;48.792;9.164;2022-07-29T10:22:06;26.30;66.40
152;DHT22;68;48.792;9.164;2022-07-29T10:24:33;26.50;65.50
152;DHT22;68;48.792;9.164;2022-07-29T10:27:03;26.30;66.30
152;DHT22;68;48.792;9.164;2022-07-29T10:29:31;26.50;66.20
152;DHT22;68;48.792;9.164;2022-07-29T10:32:30;26.50;66.10
152;DHT22;68;48.792;9.164;2022-07-29T10:35:15;26.60;66.10
152;DHT22;68;48.792;9.164;2022-07-29T10:37:59;26.50;67.10
152;DHT22;68;48.792;9.164;2022-07-29T10:40:36;26.30;67.50
152;DHT22;68;48.792;9.164;2022-07-29T10:43:27;25.80;68.90
152;DHT22;68;48.792;9.164;2022-07-29T10:45:58;25.90;69.80
152;DHT22;68;48.792;9.164;2022-07-29T10:48:26;25.80;69.50
152;DHT22;68;48.792;9.164;2022-07-29T10:50:54;25.90;71.20
152;DHT22;68;48.792;9.164;2022-07-29T10:53:22;25.90;72.00
152;DHT22;68;48.792;9.164;2022-07-29T10:55:49;25.90;71.20
152;DHT22;68;48.792;9.164;2022-07-29T10:58:18;25.90;71.10
152;DHT22;68;48.792;9.164;2022-07-29T11:00:46;25.80;71.20
152;DHT22;68;48.792;9.164;2022-07-29T11:03:46;25.90;72.20
152;DHT22;68;48.792;9.164;2022-07-29T11:06:15;25.90;73.30
152;DHT22;68;48.792;9.164;2022-07-29T11:08:42;25.80;75.00
152;DHT22;68;48.792;9.164;2022-07-29T11:11:36;25.60;77.00
152;DHT22;68;48.792;9.164;2022-07-29T11:14:07;25.40;80.70
152;DHT22;68;48.792;9.164;2022-07-29T11:17:02;25.20;82.40
152;DHT22;68;48.792;9.164;2022-07-29T11:19:30;24.90;85.10
152;DHT22;68;48.792;9.164;2022-07-29T11:21:58;24.20;89.30
152;DHT22;68;48.792;9.164;2022-07-29T11:24:26;23.70;90.70
152;DHT22;68;48.792;9.164;2022-07-29T11:27:13;22.90;91.20
152;DHT22;68;48.792;9.164;2022-07-29T11:29:50;22.50;91.60
152;DHT22;68;48.792;9.164;2022-07-29T11:32:18;22.40;91.40
152;DHT22;68;48.792;9.164;2022-07-29T11:34:47;22.80;91.60
152;DHT22;68;48.792;9.164;2022-07-29T11:37:19;23.00;91.70
152;DHT22;68;48.792;9.164;2022-07-29T11:39:47;23.30;91.70
152;DHT22;68;48.792;9.164;2022-07-29T11:42:44;23.30;91.60
152;DHT22;68;48.792;9.164;2022-07-29T11:45:17;23.30;91.40
152;DHT22;68;48.792;9.164;2022-07-29T11:47:49;22.90;91.40
152;DHT22;68;48.792;9.164;2022-07-29T11:50:33;22.70;91.30
152;DHT22;68;48.792;9.164;2022-07-29T11:53:02;23.10;91.80
152;DHT22;68;48.792;9.164;2022-07-29T11:55:29;23.40;91.20
152;DHT22;68;48.792;9.164;2022-07-29T11:58:01;23.40;91.10
152;DHT22;68;48.792;9.164;2022-07-29T12:00:30;23.50;91.20
152;DHT22;68;48.792;9.164;2022-07-29T12:02:58;23.70;90.70
152;DHT22;68;48.792;9.164;2022-07-29T12:05:40;23.80;90.30
152;DHT22;68;48.792;9.164;2022-07-29T12:08:15;23.80;90.30
152;DHT22;68;48.792;9.164;2022-07-29T12:10:45;23.80;89.40
152;DHT22;68;48.792;9.164;2022-07-29T12:13:12;23.70;90.90
152;DHT22;68;48.792;9.164;2022-07-29T12:15:40;23.90;90.50
152;DHT22;68;48.792;9.164;2022-07-29T12:18:10;23.80;87.70
152;DHT22;68;48.792;9.164;2022-07-29T12:20:39;23.90;88.00
152;DHT22;68;48.792;9.164;2022-07-29T12:23:07;24.10;87.70
152;DHT22;68;48.792;9.164;2022-07-29T12:25:35;24.10;85.60
152;DHT22;68;48.792;9.164;2022-07-29T12:28:04;24.00;86.20
152;DHT22;68;48.792;9.164;2022-07-29T12:30:43;24.00;84.70
152;DHT22;68;48.792;9.164;2022-07-29T12:33:19;24.00;83.50
152;DHT22;68;48.792;9.164;2022-07-29T12:35:49;24.00;82.50
152;DHT22;68;48.792;9.164;2022-07-29T12:38:17;23.80;82.90
152;DHT22;68;48.792;9.164;2022-07-29T12:40:45;23.60;82.10
152;DHT22;68;48.792;9.164;2022-07-29T12:43:14;23.50;81.60
152;DHT22;68;48.792;9.164;2022-07-29T12:45:42;23.30;81.80
152;DHT22;68;48.792;9.164;2022-07-29T12:48:09;23.10;84.80
152;DHT22;68;48.792;9.164;2022-07-29T12:50:52;22.90;85.70
152;DHT22;68;48.792;9.164;2022-07-29T12:53:19;22.80;83.70
152;DHT22;68;48.792;9.164;2022-07-29T12:55:48;22.80;86.10
152;DHT22;68;48.792;9.164;2022-07-29T12:58:34;22.80;87.70
152;DHT22;68;48.792;9.164;2022-07-29T13:01:03;23.00;85.60
152;DHT22;68;48.792;9.164;2022-07-29T13:03:42;22.90;88.40
152;DHT22;68;48.792;9.164;2022-07-29T13:06:32;22.60;89.80
152;DHT22;68;48.792;9.164;2022-07-29T13:09:01;22.50;91.00
152;DHT22;68;48.792;9.164;2022-07-29T13:11:30;22.20;90.10
152;DHT22;68;48.792;9.164;2022-07-29T13:13:56;22.50;91.10
152;DHT22;68;48.792;9.164;2022-07-29T13:16:24;22.60;90.50
152;DHT22;68;48.792;9.164;2022-07-29T13:19:07;22.30;91.00
152;DHT22;68;48.792;9.164;2022-07-29T13:21:36;22.40;89.80
152;DHT22;68;48.792;9.164;2022-07-29T13:24:04;22.50;91.60
152;DHT22;68;48.792;9.164;2022-07-29T13:26:31;22.50;91.80
152;DHT22;68;48.792;9.164;2022-07-29T13:28:58;22.30;91.80
152;DHT22;68;48.792;9.164;2022-07-29T13:31:25;22.20;91.40
152;DHT22;68;48.792;9.164;2022-07-29T13:33:52;22.00;91.50
152;DHT22;68;48.792;9.164;2022-07-29T13:36:18;21.90;89.80
152;DHT22;68;48.792;9.164;2022-07-29T13:38:47;21.90;88.00
152;DHT22;68;48.792;9.164;2022-07-29T13:41:13;21.80;87.50
152;DHT22;68;48.792;9.164;2022-07-29T13:43:40;21.70;85.20
152;DHT22;68;48.792;9.164;2022-07-29T13:46:07;21.50;87.50
152;DHT22;68;48.792;9.164;2022-07-29T13:48:34;21.50;83.30
152;DHT22;68;48.792;9.164;2022-07-29T13:51:01;21.60;80.20
152;DHT22;68;48.792;9.164;2022-07-29T13:53:27;21.50;84.40
152;DHT22;68;48.792;9.164;2022-07-29T13:55:56;21.60;89.60
152;DHT22;68;48.792;9.164;2022-07-29T13:58:23;21.80;90.10
152;DHT22;68;48.792;9.164;2022-07-29T14:00:50;22.00;88.30
152;DHT22;68;48.792;9.164;2022-07-29T14:03:16;22.20;85.80
152;DHT22;68;48.792;9.164;2022-07-29T14:05:43;22.40;85.40
152;DHT22;68;48.792;9.164;2022-07-29T14:08:10;22.70;90.70
152;DHT22;68;48.792;9.164;2022-07-29T14:10:37;23.10;91.60
152;DHT22;68;48.792;9.164;2022-07-29T14:13:05;23.30;91.20
152;DHT22;68;48.792;9.164;2022-07-29T14:15:32;23.40;91.30
152;DHT22;68;48.792;9.164;2022-07-29T14:17:58;23.60;91.40
152;DHT22;68;48.792;9.164;2022-07-29T14:20:25;23.90;91.30
152;DHT22;68;48.792;9.164;2022-07-29T14:22:53;24.10;90.40
152;DHT22;68;48.792;9.164;2022-07-29T14:25:20;24.00;89.40
152;DHT22;68;48.792;9.164;2022-07-29T14:27:47;24.10;90.70
152;DHT22;68;48.792;9.164;2022-07-29T14:30:15;24.10;89.40
152;DHT22;68;48.792;9.164;2022-07-29T14:32:42;24.10;88.70
152;DHT22;68;48.792;9.164;2022-07-29T14:35:09;24.00;88.00
152;DHT22;68;48.792;9.164;2022-07-29T14:37:36;24.00;87.10
152;DHT22;68;48.792;9.164;2022-07-29T14:40:04;24.10;86.40
152;DHT22;68;48.792;9.164;2022-07-29T14:42:31;24.20;86.30
152;DHT22;68;48.792;9.164;2022-07-29T14:44:58;24.30;86.60
152;DHT22;68;48.792;9.164;2022-07-29T14:47:26;24.40;86.20
152;DHT22;68;48.792;9.164;2022-07-29T14:49:53;24.40;85.90
152;DHT22;68;48.792;9.164;2022-07-29T14:52:20;24.50;86.50
152;DHT22;68;48.792;9.164;2022-07-29T14:54:46;24.40;86.00
152;DHT22;68;48.792;9.164;2022-07-29T14:57:13;24.50;86.20
152;DHT22;68;48.792;9.164;2022-07-29T14:59:40;24.70;85.90
152;DHT22;68;48.792;9.164;2022-07-29T15:02:07;24.60;85.70
152;DHT22;68;48.792;9.164;2022-07-29T15:04:35;24.60;81.80
152;DHT22;68;48.792;9.164;2022-07-29T15:07:02;24.70;81.30
152;DHT22;68;48.792;9.164;2022-07-29T15:09:29;24.70;80.40
152;DHT22;68;48.792;9.164;2022-07-29T15:11:56;24.80;81.10
152;DHT22;68;48.792;9.164;2022-07-29T15:14:23;24.80;82.80
152;DHT22;68;48.792;9.164;2022-07-29T15:16:49;24.80;83.20
152;DHT22;68;48.792;9.164;2022-07-29T15:19:16;24.80;83.40
152;DHT22;68;48.792;9.164;2022-07-29T15:21:44;24.80;81.60
152;DHT22;68;48.792;9.164;2022-07-29T15:24:11;24.80;81.10
152;DHT22;68;48.792;9.164;2022-07-29T15:26:38;24.60;83.30
152;DHT22;68;48.792;9.164;2022-07-29T15:29:05;24.70;82.10
152;DHT22;68;48.792;9.164;2022-07-29T15:31:32;24.70;83.90
152;DHT22;68;48.792;9.164;2022-07-29T15:33:58;24.70;83.50
152;DHT22;68;48.792;9.164;2022-07-29T15:36:25;24.80;82.20
152;DHT22;68;48.792;9.164;2022-07-29T15:38:54;24.80;83.00
152;DHT22;68;48.792;9.164;2022-07-29T15:41:21;24.80;82.20
152;DHT22;68;48.792;9.164;2022-07-29T15:43:48;24.60;83.40
152;DHT22;68;48.792;9.164;2022-07-29T15:46:17;24.60;84.60
152;DHT22;68;48.792;9.164;2022-07-29T15:49:05;24.60;83.40
152;DHT22;68;48.792;9.164;2022-07-29T15:51:32;24.40;84.30
152;DHT22;68;48.792;9.164;2022-07-29T15:54:02;24.50;83.90
152;DHT22;68;48.792;9.164;2022-07-29T15:56:29;24.60;83.40
152;DHT22;68;48.792;9.164;2022-07-29T15:58:56;24.80;82.70
152;DHT22;68;48.792;9.164;2022-07-29T16:01:23;24.80;82.80
152;DHT22;68;48.792;9.164;2022-07-29T16:03:51;24.80;83.10
152;DHT22;68;48.792;9.164;2022-07-29T16:06:18;24.90;84.30
152;DHT22;68;48.792;9.164;2022-07-29T16:08:44;24.90;84.20
152;DHT22;68;48.792;9.164;2022-07-29T16:11:13;24.70;83.40
152;DHT22;68;48.792;9.164;2022-07-29T16:13:39;24.90;84.90
152;DHT22;68;48.792;9.164;2022-07-29T16:16:06;25.00;84.50
152;DHT22;68;48.792;9.164;2022-07-29T16:18:33;25.00;83.90
152;DHT22;68;48.792;9.164;2022-07-29T16:21:00;25.00;83.60
152;DHT22;68;48.792;9.164;2022-07-29T16:23:26;25.10;83.90
152;DHT22;68;48.792;9.164;2022-07-29T16:25:53;25.10;84.00
152;DHT22;68;48.792;9.164;2022-07-29T16:28:21;25.10;84.20
152;DHT22;68;48.792;9.164;2022-07-29T16:30:48;24.90;83.90
152;DHT22;68;48.792;9.164;2022-07-29T16:33:15;24.90;84.60
152;DHT22;68;48.792;9.164;2022-07-29T16:35:42;24.80;85.40
152;DHT22;68;48.792;9.164;2022-07-29T16:38:09;24.80;85.30
152;DHT22;68;48.792;9.164;2022-07-29T16:40:36;24.80;85.20
152;DHT22;68;48.792;9.164;2022-07-29T16:43:03;24.60;87.30
152;DHT22;68;48.792;9.164;2022-07-29T16:45:31;24.50;87.20
152;DHT22;68;48.792;9.164;2022-07-29T16:47:58;24.50;87.20
152;DHT22;68;48.792;9.164;2022-07-29T16:50:25;24.60;86.50
152;DHT22;68;48.792;9.164;2022-07-29T16:52:53;24.70;84.90
152;DHT22;68;48.792;9.164;2022-07-29T16:55:20;24.60;84.60
152;DHT22;68;48.792;9.164;2022-07-29T16:57:47;24.60;85.20
152;DHT22;68;48.792;9.164;2022-07-29T17:00:15;24.70;84.10
152;DHT22;68;48.792;9.164;2022-07-29T17:02:43;24.80;84.10